sensor_id;sensor_type;location;lat;lon;timestamp;P1;durP1;ratioP1;P2;durP2;ratioP2
19782;SDS011;10051;40.294;-3.754;2023-02-28T00:00:31;1.80;;;1.20;;
19782;SDS011;10051;40.294;-3.754;2023-02-28T00:02:58;2.17;;;1.20;;
19782;SDS011;10051;40.294;-3.754;2023-02-28T00:05:26;6.53;;;1.30;;
19782;SDS011;10051;40.294;-3.754;2023-02-28T00:07:53;2.37;;;1.30;;
19782;SDS011;10051;40.294;-3.754;2023-02-28T00:10:24;2.77;;;1.40;;
19782;SDS011;10051;40.294;-3.754;2023-02-28T00:12:55;2.80;;;1.50;;
19782;SDS011;10051;40.294;-3.754;2023-02-28T00:15:24;3.70;;;1.40;;
19782;SDS011;10051;40.294;-3.754;2023-02-28T00:17:50;2.27;;;1.50;;
19782;SDS011;10051;40.294;-3.754;2023-02-28T00:20:15;1.93;;;1.20;;
19782;SDS011;10051;40.294;-3.754;2023-02-28T00:22:42;3.10;;;1.40;;
19782;SDS011;10051;40.294;-3.754;2023-02-28T00:25:11;2.20;;;1.30;;
19782;SDS011;10051;40.294;-3.754;2023-02-28T00:27:39;2.97;;;1.60;;
19782;SDS011;10051;40.294;-3.754;2023-02-28T00:30:06;4.97;;;1.50;;
19782;SDS011;10051;40.294;-3.754;2023-02-28T00:32:34;2.37;;;1.37;;
19782;SDS011;10051;40.294;-3.754;2023-02-28T00:35:00;3.23;;;1.50;;
19782;SDS011;10051;40.294;-3.754;2023-02-28T00:37:26;2.30;;;1.50;;
19782;SDS011;10051;40.294;-3.754;2023-02-28T00:39:52;3.80;;;1.40;;
19782;SDS011;10051;40.294;-3.754;2023-02-28T00:42:18;2.73;;;1.40;;
19782;SDS011;10051;40.294;-3.754;2023-02-28T00:44:44;3.87;;;1.50;;
19782;SDS011;10051;40.294;-3.754;2023-02-28T00:47:09;2.60;;;1.47;;
19782;SDS011;10051;40.294;-3.754;2023-02-28T00:49:35;2.70;;;1.40;;
19782;SDS011;10051;40.294;-3.754;2023-02-28T00:52:01;2.47;;;1.47;;
19782;SDS011;10051;40.294;-3.754;2023-02-28T00:54:26;2.53;;;1.40;;
19782;SDS011;10051;40.294;-3.754;2023-02-28T00:56:52;4.53;;;1.40;;
19782;SDS011;10051;40.294;-3.754;2023-02-28T00:59:18;2.73;;;1.40;;
19782;SDS011;10051;40.294;-3.754;2023-02-28T01:01:44;1.80;;;1.30;;
19782;SDS011;10051;40.294;-3.754;2023-02-28T01:04:11;2.57;;;1.33;;
19782;SDS011;10051;40.294;-3.754;2023-02-28T01:06:37;1.77;;;1.13;;
19782;SDS011;10051;40.294;-3.754;2023-02-28T01:09:03;2.30;;;1.40;;
19782;SDS011;10051;40.294;-3.754;2023-02-28T01:11:30;2.70;;;1.40;;
19782;SDS011;10051;40.294;-3.754;2023-02-28T01:13:56;2.33;;;1.50;;
19782;SDS011;10051;40.294;-3.754;2023-02-28T01:16:26;2.13;;;1.30;;
19782;SDS011;10051;40.294;-3.754;2023-02-28T01:18:54;1.80;;;1.20;;
19782;SDS011;10051;40.294;-3.754;2023-02-28T01:21:23;3.57;;;1.60;;
19782;SDS011;10051;40.294;-3.754;2023-02-28T01:23:49;2.83;;;1.50;;
19782;SDS011;10051;40.294;-3.754;2023-02-28T01:26:18;3.03;;;1.60;;
19782;SDS011;10051;40.294;-3.754;2023-02-28T01:28:46;3.13;;;1.70;;
19782;SDS011;10051;40.294;-3.754;2023-02-28T01:31:12;3.17;;;1.70;;
19782;SDS011;10051;40.294;-3.754;2023-02-28T01:33:38;3.93;;;1.80;;
19782;SDS011;10051;40.294;-3.754;2023-02-28T01:36:05;2.80;;;1.50;;
19782;SDS011;10051;40.294;-3.754;2023-02-28T01:38:34;4.23;;;1.50;;
19782;SDS011;10051;40.294;-3.754;2023-02-28T01:41:00;2.13;;;1.63;;
19782;SDS011;10051;40.294;-3.754;2023-02-28T01:43:27;3.27;;;1.70;;
19782;SDS011;10051;40.294;-3.754;2023-02-28T01:45:58;3.83;;;1.50;;
19782;SDS011;10051;40.294;-3.754;2023-02-28T01:48:26;2.73;;;1.60;;
19782;SDS011;10051;40.294;-3.754;2023-02-28T01:50:56;3.63;;;1.70;;
19782;SDS011;10051;40.294;-3.754;2023-02-28T01:53:31;5.20;;;1.53;;
19782;SDS011;10051;40.294;-3.754;2023-02-28T01:56:00;2.77;;;1.43;;
19782;SDS011;10051;40.294;-3.754;2023-02-28T01:58:31;3.77;;;1.80;;
19782;SDS011;10051;40.294;-3.754;2023-02-28T02:00:56;4.70;;;1.73;;
19782;SDS011;10051;40.294;-3.754;2023-02-28T02:03:22;3.57;;;1.73;;
19782;SDS011;10051;40.294;-3.754;2023-02-28T02:05:48;5.40;;;2.23;;
19782;SDS011;10051;40.294;-3.754;2023-02-28T02:08:19;4.77;;;2.50;;
19782;SDS011;10051;40.294;-3.754;2023-02-28T02:11:21;6.37;;;2.50;;
19782;SDS011;10051;40.294;-3.754;2023-02-28T02:16:23;5.40;;;1.90;;
19782;SDS011;10051;40.294;-3.754;2023-02-28T02:35:11;6.50;;;2.13;;
19782;SDS011;10051;40.294;-3.754;2023-02-28T02:43:24;5.67;;;2.17;;
19782;SDS011;10051;40.294;-3.754;2023-02-28T02:46:14;6.20;;;1.90;;
19782;SDS011;10051;40.294;-3.754;2023-02-28T02:48:48;6.47;;;2.00;;
19782;SDS011;10051;40.294;-3.754;2023-02-28T02:51:18;4.43;;;2.00;;
19782;SDS011;10051;40.294;-3.754;2023-02-28T02:53:49;4.47;;;2.00;;
19782;SDS011;10051;40.294;-3.754;2023-02-28T02:56:19;5.37;;;2.00;;
19782;SDS011;10051;40.294;-3.754;2023-02-28T02:58:49;7.03;;;2.17;;
19782;SDS011;10051;40.294;-3.754;2023-02-28T03:01:19;7.90;;;2.20;;
19782;SDS011;10051;40.294;-3.754;2023-02-28T03:03:58;2.60;;;1.97;;
19782;SDS011;10051;40.294;-3.754;2023-02-28T03:06:27;6.67;;;2.40;;
19782;SDS011;10051;40.294;-3.754;2023-02-28T03:08:53;4.07;;;1.93;;
19782;SDS011;10051;40.294;-3.754;2023-02-28T03:11:19;4.53;;;1.90;;
19782;SDS011;10051;40.294;-3.754;2023-02-28T03:19:06;2.70;;;1.70;;
19782;SDS011;10051;40.294;-3.754;2023-02-28T03:24:28;4.50;;;1.73;;
19782;SDS011;10051;40.294;-3.754;2023-02-28T03:27:03;4.63;;;1.80;;
19782;SDS011;10051;40.294;-3.754;2023-02-28T03:29:39;5.97;;;1.60;;
19782;SDS011;10051;40.294;-3.754;2023-02-28T03:32:12;3.70;;;1.90;;
19782;SDS011;10051;40.294;-3.754;2023-02-28T03:35:08;4.53;;;1.90;;
19782;SDS011;10051;40.294;-3.754;2023-02-28T03:37:32;3.33;;;1.90;;
19782;SDS011;10051;40.294;-3.754;2023-02-28T03:40:10;2.97;;;1.77;;
19782;SDS011;10051;40.294;-3.754;2023-02-28T03:42:39;3.97;;;1.70;;
19782;SDS011;10051;40.294;-3.754;2023-02-28T03:45:09;5.60;;;2.37;;
19782;SDS011;10051;40.294;-3.754;2023-02-28T03:47:39;4.50;;;2.20;;
19782;SDS011;10051;40.294;-3.754;2023-02-28T03:50:12;3.80;;;2.07;;
19782;SDS011;10051;40.294;-3.754;2023-02-28T03:52:44;4.27;;;2.07;;
19782;SDS011;10051;40.294;-3.754;2023-02-28T03:55:16;4.17;;;2.00;;
19782;SDS011;10051;40.294;-3.754;2023-02-28T03:57:47;4.10;;;1.90;;
19782;SDS011;10051;40.294;-3.754;2023-02-28T04:00:25;2.93;;;1.73;;
19782;SDS011;10051;40.294;-3.754;2023-02-28T04:02:55;3.87;;;1.80;;
19782;SDS011;10051;40.294;-3.754;2023-02-28T04:05:21;3.27;;;1.67;;
19782;SDS011;10051;40.294;-3.754;2023-02-28T04:07:47;7.07;;;1.90;;
19782;SDS011;10051;40.294;-3.754;2023-02-28T04:10:13;5.27;;;1.70;;
19782;SDS011;10051;40.294;-3.754;2023-02-28T04:12:40;3.53;;;1.90;;
19782;SDS011;10051;40.294;-3.754;2023-02-28T04:15:06;3.53;;;1.90;;
19782;SDS011;10051;40.294;-3.754;2023-02-28T04:17:32;3.57;;;1.70;;
19782;SDS011;10051;40.294;-3.754;2023-02-28T04:19:58;2.90;;;1.50;;
19782;SDS011;10051;40.294;-3.754;2023-02-28T04:22:23;6.20;;;1.80;;
19782;SDS011;10051;40.294;-3.754;2023-02-28T04:24:51;3.33;;;1.80;;
19782;SDS011;10051;40.294;-3.754;2023-02-28T04:27:18;6.20;;;1.67;;
19782;SDS011;10051;40.294;-3.754;2023-02-28T04:29:45;2.83;;;1.70;;
19782;SDS011;10051;40.294;-3.754;2023-02-28T04:32:10;5.40;;;2.20;;
19782;SDS011;10051;40.294;-3.754;2023-02-28T04:34:36;3.53;;;1.77;;
19782;SDS011;10051;40.294;-3.754;2023-02-28T04:37:02;2.43;;;1.70;;
19782;SDS011;10051;40.294;-3.754;2023-02-28T04:39:28;5.90;;;1.90;;
19782;SDS011;10051;40.294;-3.754;2023-02-28T04:41:54;5.57;;;2.07;;
19782;SDS011;10051;40.294;-3.754;2023-02-28T04:44:20;2.83;;;1.90;;
19782;SDS011;10051;40.294;-3.754;2023-02-28T04:46:47;5.43;;;2.10;;
19782;SDS011;10051;40.294;-3.754;2023-02-28T04:49:13;3.80;;;2.00;;
19782;SDS011;10051;40.294;-3.754;2023-02-28T04:51:39;3.20;;;1.90;;
19782;SDS011;10051;40.294;-3.754;2023-02-28T04:54:05;5.80;;;2.20;;
19782;SDS011;10051;40.294;-3.754;2023-02-28T04:56:30;8.50;;;2.27;;
19782;SDS011;10051;40.294;-3.754;2023-02-28T04:58:56;5.87;;;2.10;;
19782;SDS011;10051;40.294;-3.754;2023-02-28T05:01:29;5.17;;;2.20;;
19782;SDS011;10051;40.294;-3.754;2023-02-28T05:03:59;4.87;;;2.10;;
19782;SDS011;10051;40.294;-3.754;2023-02-28T05:06:27;8.53;;;2.20;;
19782;SDS011;10051;40.294;-3.754;2023-02-28T05:08:55;7.70;;;2.03;;
19782;SDS011;10051;40.294;-3.754;2023-02-28T05:11:26;6.40;;;2.20;;
19782;SDS011;10051;40.294;-3.754;2023-02-28T05:13:54;6.47;;;2.17;;
19782;SDS011;10051;40.294;-3.754;2023-02-28T05:16:20;8.33;;;2.57;;
19782;SDS011;10051;40.294;-3.754;2023-02-28T05:18:46;5.73;;;2.53;;
19782;SDS011;10051;40.294;-3.754;2023-02-28T05:21:28;3.73;;;2.20;;
19782;SDS011;10051;40.294;-3.754;2023-02-28T05:23:57;5.43;;;2.40;;
19782;SDS011;10051;40.294;-3.754;2023-02-28T05:26:25;5.67;;;2.40;;
19782;SDS011;10051;40.294;-3.754;2023-02-28T05:28:51;4.60;;;2.50;;
19782;SDS011;10051;40.294;-3.754;2023-02-28T05:31:16;11.30;;;2.40;;
19782;SDS011;10051;40.294;-3.754;2023-02-28T05:33:42;4.67;;;2.40;;
19782;SDS011;10051;40.294;-3.754;2023-02-28T05:36:11;6.97;;;2.70;;
19782;SDS011;10051;40.294;-3.754;2023-02-28T05:38:37;5.50;;;2.40;;
19782;SDS011;10051;40.294;-3.754;2023-02-28T05:41:09;8.07;;;2.70;;
19782;SDS011;10051;40.294;-3.754;2023-02-28T05:43:36;5.83;;;2.43;;
19782;SDS011;10051;40.294;-3.754;2023-02-28T05:46:05;7.53;;;2.70;;
19782;SDS011;10051;40.294;-3.754;2023-02-28T05:48:34;7.50;;;2.93;;
19782;SDS011;10051;40.294;-3.754;2023-02-28T05:51:00;5.30;;;2.40;;
19782;SDS011;10051;40.294;-3.754;2023-02-28T05:53:27;6.03;;;2.80;;
19782;SDS011;10051;40.294;-3.754;2023-02-28T05:55:53;7.63;;;2.80;;
19782;SDS011;10051;40.294;-3.754;2023-02-28T05:58:19;3.90;;;2.60;;
19782;SDS011;10051;40.294;-3.754;2023-02-28T06:00:45;3.60;;;2.27;;
19782;SDS011;10051;40.294;-3.754;2023-02-28T06:03:10;3.93;;;2.53;;
19782;SDS011;10051;40.294;-3.754;2023-02-28T06:05:36;5.77;;;2.90;;
19782;SDS011;10051;40.294;-3.754;2023-02-28T06:08:03;5.13;;;2.33;;
19782;SDS011;10051;40.294;-3.754;2023-02-28T06:10:31;4.10;;;2.50;;
19782;SDS011;10051;40.294;-3.754;2023-02-28T06:12:59;10.07;;;3.57;;
19782;SDS011;10051;40.294;-3.754;2023-02-28T06:15:27;8.10;;;3.80;;
19782;SDS011;10051;40.294;-3.754;2023-02-28T06:17:53;9.17;;;3.80;;
19782;SDS011;10051;40.294;-3.754;2023-02-28T06:20:21;9.07;;;3.80;;
19782;SDS011;10051;40.294;-3.754;2023-02-28T06:22:46;9.43;;;3.70;;
19782;SDS011;10051;40.294;-3.754;2023-02-28T06:25:12;9.47;;;4.20;;
19782;SDS011;10051;40.294;-3.754;2023-02-28T06:27:37;6.23;;;3.00;;
19782;SDS011;10051;40.294;-3.754;2023-02-28T06:30:03;8.17;;;3.10;;
19782;SDS011;10051;40.294;-3.754;2023-02-28T06:32:29;6.33;;;3.40;;
19782;SDS011;10051;40.294;-3.754;2023-02-28T06:34:55;7.73;;;3.10;;
19782;SDS011;10051;40.294;-3.754;2023-02-28T06:37:22;9.90;;;3.33;;
19782;SDS011;10051;40.294;-3.754;2023-02-28T06:39:51;8.73;;;3.00;;
19782;SDS011;10051;40.294;-3.754;2023-02-28T06:42:16;12.87;;;3.63;;
19782;SDS011;10051;40.294;-3.754;2023-02-28T06:44:42;10.80;;;3.70;;
19782;SDS011;10051;40.294;-3.754;2023-02-28T06:47:08;12.80;;;4.10;;
19782;SDS011;10051;40.294;-3.754;2023-02-28T06:49:34;15.83;;;4.07;;
19782;SDS011;10051;40.294;-3.754;2023-02-28T06:52:00;13.60;;;4.10;;
19782;SDS011;10051;40.294;-3.754;2023-02-28T06:54:26;13.80;;;4.40;;
19782;SDS011;10051;40.294;-3.754;2023-02-28T06:56:52;20.87;;;5.90;;
19782;SDS011;10051;40.294;-3.754;2023-02-28T06:59:19;20.47;;;5.63;;
19782;SDS011;10051;40.294;-3.754;2023-02-28T07:01:46;18.60;;;5.40;;
19782;SDS011;10051;40.294;-3.754;2023-02-28T07:04:11;26.63;;;6.77;;
19782;SDS011;10051;40.294;-3.754;2023-02-28T07:06:38;19.40;;;6.27;;
19782;SDS011;10051;40.294;-3.754;2023-02-28T07:09:04;18.47;;;5.20;;
19782;SDS011;10051;40.294;-3.754;2023-02-28T07:11:30;14.03;;;5.67;;
19782;SDS011;10051;40.294;-3.754;2023-02-28T07:13:56;19.93;;;5.00;;
19782;SDS011;10051;40.294;-3.754;2023-02-28T07:16:22;11.00;;;4.00;;
19782;SDS011;10051;40.294;-3.754;2023-02-28T07:18:51;12.40;;;4.00;;
19782;SDS011;10051;40.294;-3.754;2023-02-28T07:21:17;10.40;;;3.37;;
19782;SDS011;10051;40.294;-3.754;2023-02-28T07:23:43;12.20;;;3.80;;
19782;SDS011;10051;40.294;-3.754;2023-02-28T07:26:11;12.63;;;3.20;;
19782;SDS011;10051;40.294;-3.754;2023-02-28T07:28:39;14.47;;;4.20;;
19782;SDS011;10051;40.294;-3.754;2023-02-28T07:31:07;10.17;;;3.80;;
19782;SDS011;10051;40.294;-3.754;2023-02-28T07:33:34;13.23;;;4.53;;
19782;SDS011;10051;40.294;-3.754;2023-02-28T07:36:02;11.38;;;4.30;;
19782;SDS011;10051;40.294;-3.754;2023-02-28T07:38:39;12.80;;;5.17;;
19782;SDS011;10051;40.294;-3.754;2023-02-28T07:41:04;7.67;;;4.00;;
19782;SDS011;10051;40.294;-3.754;2023-02-28T07:43:30;10.27;;;4.33;;
19782;SDS011;10051;40.294;-3.754;2023-02-28T07:46:01;9.10;;;3.70;;
19782;SDS011;10051;40.294;-3.754;2023-02-28T07:48:31;11.97;;;3.87;;
19782;SDS011;10051;40.294;-3.754;2023-02-28T07:50:57;10.10;;;4.40;;
19782;SDS011;10051;40.294;-3.754;2023-02-28T07:53:24;9.40;;;3.70;;
19782;SDS011;10051;40.294;-3.754;2023-02-28T07:55:50;6.80;;;3.80;;
19782;SDS011;10051;40.294;-3.754;2023-02-28T07:58:16;10.87;;;3.67;;
19782;SDS011;10051;40.294;-3.754;2023-02-28T08:00:41;10.13;;;3.60;;
19782;SDS011;10051;40.294;-3.754;2023-02-28T08:03:09;10.60;;;4.00;;
19782;SDS011;10051;40.294;-3.754;2023-02-28T08:05:40;10.77;;;5.50;;
19782;SDS011;10051;40.294;-3.754;2023-02-28T08:08:06;24.50;;;9.50;;
19782;SDS011;10051;40.294;-3.754;2023-02-28T08:10:32;16.17;;;7.63;;
19782;SDS011;10051;40.294;-3.754;2023-02-28T08:12:58;10.80;;;5.00;;
19782;SDS011;10051;40.294;-3.754;2023-02-28T08:15:24;9.03;;;3.70;;
19782;SDS011;10051;40.294;-3.754;2023-02-28T08:17:49;17.40;;;4.50;;
19782;SDS011;10051;40.294;-3.754;2023-02-28T08:20:15;16.90;;;4.37;;
19782;SDS011;10051;40.294;-3.754;2023-02-28T08:22:40;13.70;;;3.90;;
19782;SDS011;10051;40.294;-3.754;2023-02-28T08:25:07;17.65;;;4.00;;
19782;SDS011;10051;40.294;-3.754;2023-02-28T08:27:36;8.70;;;4.17;;
19782;SDS011;10051;40.294;-3.754;2023-02-28T08:30:02;13.23;;;4.18;;
19782;SDS011;10051;40.294;-3.754;2023-02-28T08:32:28;249.80;;;14.32;;
19782;SDS011;10051;40.294;-3.754;2023-02-28T08:34:54;138.20;;;10.00;;
19782;SDS011;10051;40.294;-3.754;2023-02-28T08:37:19;155.27;;;10.47;;
19782;SDS011;10051;40.294;-3.754;2023-02-28T08:39:45;18.47;;;4.67;;
19782;SDS011;10051;40.294;-3.754;2023-02-28T08:42:10;10.23;;;4.07;;
19782;SDS011;10051;40.294;-3.754;2023-02-28T08:44:36;9.98;;;4.20;;
19782;SDS011;10051;40.294;-3.754;2023-02-28T08:47:02;8.77;;;3.93;;
19782;SDS011;10051;40.294;-3.754;2023-02-28T08:49:27;15.63;;;4.57;;
19782;SDS011;10051;40.294;-3.754;2023-02-28T08:51:53;9.43;;;4.30;;
19782;SDS011;10051;40.294;-3.754;2023-02-28T08:54:20;14.67;;;5.17;;
19782;SDS011;10051;40.294;-3.754;2023-02-28T08:56:46;14.63;;;4.93;;
19782;SDS011;10051;40.294;-3.754;2023-02-28T08:59:12;8.73;;;4.07;;
19782;SDS011;10051;40.294;-3.754;2023-02-28T09:01:38;9.63;;;4.77;;
19782;SDS011;10051;40.294;-3.754;2023-02-28T09:04:06;6.93;;;4.10;;
19782;SDS011;10051;40.294;-3.754;2023-02-28T09:06:33;10.40;;;4.80;;
19782;SDS011;10051;40.294;-3.754;2023-02-28T09:08:59;10.30;;;4.40;;
19782;SDS011;10051;40.294;-3.754;2023-02-28T09:11:26;14.70;;;5.07;;
19782;SDS011;10051;40.294;-3.754;2023-02-28T09:13:53;10.60;;;5.03;;
19782;SDS011;10051;40.294;-3.754;2023-02-28T09:16:20;8.50;;;4.23;;
19782;SDS011;10051;40.294;-3.754;2023-02-28T09:18:46;13.60;;;4.80;;
19782;SDS011;10051;40.294;-3.754;2023-02-28T09:21:14;8.87;;;4.23;;
19782;SDS011;10051;40.294;-3.754;2023-02-28T09:23:44;18.97;;;4.63;;
19782;SDS011;10051;40.294;-3.754;2023-02-28T09:26:16;8.37;;;4.20;;
19782;SDS011;10051;40.294;-3.754;2023-02-28T09:28:44;7.47;;;4.30;;
19782;SDS011;10051;40.294;-3.754;2023-02-28T09:31:11;6.40;;;4.03;;
19782;SDS011;10051;40.294;-3.754;2023-02-28T09:33:39;9.13;;;4.10;;
19782;SDS011;10051;40.294;-3.754;2023-02-28T09:36:05;11.67;;;4.40;;
19782;SDS011;10051;40.294;-3.754;2023-02-28T09:38:31;9.47;;;4.33;;
19782;SDS011;10051;40.294;-3.754;2023-02-28T09:40:58;8.60;;;4.17;;
19782;SDS011;10051;40.294;-3.754;2023-02-28T09:43:27;11.03;;;4.20;;
19782;SDS011;10051;40.294;-3.754;2023-02-28T09:46:04;7.93;;;4.13;;
19782;SDS011;10051;40.294;-3.754;2023-02-28T09:48:39;7.13;;;4.20;;
19782;SDS011;10051;40.294;-3.754;2023-02-28T09:51:12;10.67;;;4.43;;
19782;SDS011;10051;40.294;-3.754;2023-02-28T09:53:52;8.75;;;4.53;;
19782;SDS011;10051;40.294;-3.754;2023-02-28T09:56:19;8.57;;;4.30;;
19782;SDS011;10051;40.294;-3.754;2023-02-28T10:04:46;9.10;;;3.97;;
19782;SDS011;10051;40.294;-3.754;2023-02-28T10:12:59;7.60;;;4.47;;
19782;SDS011;10051;40.294;-3.754;2023-02-28T10:15:29;10.45;;;4.75;;
19782;SDS011;10051;40.294;-3.754;2023-02-28T10:17:58;9.03;;;4.33;;
19782;SDS011;10051;40.294;-3.754;2023-02-28T10:20:28;7.83;;;3.97;;
19782;SDS011;10051;40.294;-3.754;2023-02-28T10:23:04;9.90;;;4.33;;
19782;SDS011;10051;40.294;-3.754;2023-02-28T10:25:44;9.80;;;4.87;;
19782;SDS011;10051;40.294;-3.754;2023-02-28T10:28:17;10.67;;;4.73;;
19782;SDS011;10051;40.294;-3.754;2023-02-28T10:30:47;13.03;;;4.03;;
19782;SDS011;10051;40.294;-3.754;2023-02-28T10:35:44;9.47;;;4.40;;
19782;SDS011;10051;40.294;-3.754;2023-02-28T10:38:14;9.63;;;4.23;;
19782;SDS011;10051;40.294;-3.754;2023-02-28T10:40:45;6.93;;;3.93;;
19782;SDS011;10051;40.294;-3.754;2023-02-28T10:46:21;12.00;;;4.03;;
19782;SDS011;10051;40.294;-3.754;2023-02-28T10:51:02;9.53;;;3.57;;
19782;SDS011;10051;40.294;-3.754;2023-02-28T10:53:31;7.80;;;3.65;;
19782;SDS011;10051;40.294;-3.754;2023-02-28T11:04:50;6.90;;;3.60;;
19782;SDS011;10051;40.294;-3.754;2023-02-28T11:07:20;7.70;;;3.77;;
19782;SDS011;10051;40.294;-3.754;2023-02-28T11:09:49;8.27;;;3.90;;
19782;SDS011;10051;40.294;-3.754;2023-02-28T11:14:52;6.72;;;3.60;;
19782;SDS011;10051;40.294;-3.754;2023-02-28T11:19:50;8.63;;;3.73;;
19782;SDS011;10051;40.294;-3.754;2023-02-28T11:22:22;10.50;;;3.93;;
19782;SDS011;10051;40.294;-3.754;2023-02-28T11:24:53;8.80;;;3.77;;
19782;SDS011;10051;40.294;-3.754;2023-02-28T11:29:51;10.52;;;4.03;;
19782;SDS011;10051;40.294;-3.754;2023-02-28T11:32:20;5.55;;;3.28;;
19782;SDS011;10051;40.294;-3.754;2023-02-28T11:37:29;6.80;;;3.58;;
19782;SDS011;10051;40.294;-3.754;2023-02-28T11:39:57;5.78;;;3.60;;
19782;SDS011;10051;40.294;-3.754;2023-02-28T11:52:54;7.55;;;3.60;;
19782;SDS011;10051;40.294;-3.754;2023-02-28T12:00:44;6.78;;;3.63;;
19782;SDS011;10051;40.294;-3.754;2023-02-28T12:03:35;8.23;;;3.38;;
19782;SDS011;10051;40.294;-3.754;2023-02-28T12:09:03;7.97;;;4.97;;
19782;SDS011;10051;40.294;-3.754;2023-02-28T12:17:34;6.95;;;3.80;;
19782;SDS011;10051;40.294;-3.754;2023-02-28T12:20:05;8.85;;;4.13;;
19782;SDS011;10051;40.294;-3.754;2023-02-28T12:28:10;5.13;;;3.30;;
19782;SDS011;10051;40.294;-3.754;2023-02-28T12:30:41;7.20;;;3.47;;
19782;SDS011;10051;40.294;-3.754;2023-02-28T12:33:35;7.28;;;3.55;;
19782;SDS011;10051;40.294;-3.754;2023-02-28T12:36:10;5.40;;;3.40;;
19782;SDS011;10051;40.294;-3.754;2023-02-28T12:38:44;5.30;;;3.20;;
19782;SDS011;10051;40.294;-3.754;2023-02-28T12:41:22;10.20;;;3.45;;
19782;SDS011;10051;40.294;-3.754;2023-02-28T12:44:20;8.20;;;3.72;;
19782;SDS011;10051;40.294;-3.754;2023-02-28T12:46:58;5.90;;;3.20;;
19782;SDS011;10051;40.294;-3.754;2023-02-28T12:50:12;5.38;;;3.55;;
19782;SDS011;10051;40.294;-3.754;2023-02-28T12:52:56;7.65;;;3.53;;
19782;SDS011;10051;40.294;-3.754;2023-02-28T12:55:35;10.32;;;3.50;;
19782;SDS011;10051;40.294;-3.754;2023-02-28T13:03:50;6.05;;;3.92;;
19782;SDS011;10051;40.294;-3.754;2023-02-28T13:11:47;9.70;;;3.65;;
19782;SDS011;10051;40.294;-3.754;2023-02-28T13:17:01;5.85;;;3.35;;
19782;SDS011;10051;40.294;-3.754;2023-02-28T13:22:04;6.60;;;3.20;;
19782;SDS011;10051;40.294;-3.754;2023-02-28T13:27:38;5.93;;;3.53;;
19782;SDS011;10051;40.294;-3.754;2023-02-28T13:33:21;5.97;;;3.20;;
19782;SDS011;10051;40.294;-3.754;2023-02-28T13:35:59;5.13;;;3.13;;
19782;SDS011;10051;40.294;-3.754;2023-02-28T13:38:36;6.47;;;3.28;;
19782;SDS011;10051;40.294;-3.754;2023-02-28T13:51:51;6.95;;;3.72;;
19782;SDS011;10051;40.294;-3.754;2023-02-28T14:05:24;4.45;;;3.30;;
19782;SDS011;10051;40.294;-3.754;2023-02-28T14:07:52;6.43;;;3.30;;
19782;SDS011;10051;40.294;-3.754;2023-02-28T14:10:30;4.45;;;3.15;;
19782;SDS011;10051;40.294;-3.754;2023-02-28T14:12:59;4.75;;;3.25;;
19782;SDS011;10051;40.294;-3.754;2023-02-28T14:15:28;5.90;;;3.50;;
19782;SDS011;10051;40.294;-3.754;2023-02-28T14:18:02;7.70;;;3.85;;
19782;SDS011;10051;40.294;-3.754;2023-02-28T14:20:36;8.73;;;4.00;;
19782;SDS011;10051;40.294;-3.754;2023-02-28T14:28:44;4.55;;;3.30;;
19782;SDS011;10051;40.294;-3.754;2023-02-28T14:31:33;5.85;;;3.72;;
19782;SDS011;10051;40.294;-3.754;2023-02-28T14:36:57;10.52;;;3.40;;
19782;SDS011;10051;40.294;-3.754;2023-02-28T14:39:25;5.68;;;3.22;;
19782;SDS011;10051;40.294;-3.754;2023-02-28T14:41:52;4.65;;;3.22;;
19782;SDS011;10051;40.294;-3.754;2023-02-28T14:44:19;6.25;;;3.88;;
19782;SDS011;10051;40.294;-3.754;2023-02-28T14:46:56;11.82;;;6.15;;
19782;SDS011;10051;40.294;-3.754;2023-02-28T14:49:42;6.88;;;3.88;;
19782;SDS011;10051;40.294;-3.754;2023-02-28T14:52:17;9.05;;;4.05;;
19782;SDS011;10051;40.294;-3.754;2023-02-28T14:54:46;7.63;;;4.30;;
19782;SDS011;10051;40.294;-3.754;2023-02-28T14:57:29;6.43;;;3.97;;
19782;SDS011;10051;40.294;-3.754;2023-02-28T15:00:00;7.40;;;4.00;;
19782;SDS011;10051;40.294;-3.754;2023-02-28T15:02:34;6.43;;;4.10;;
19782;SDS011;10051;40.294;-3.754;2023-02-28T15:05:02;5.57;;;3.50;;
19782;SDS011;10051;40.294;-3.754;2023-02-28T15:07:44;4.57;;;3.20;;
19782;SDS011;10051;40.294;-3.754;2023-02-28T15:12:47;4.85;;;3.33;;
19782;SDS011;10051;40.294;-3.754;2023-02-28T15:15:17;5.15;;;3.40;;
19782;SDS011;10051;40.294;-3.754;2023-02-28T15:17:46;6.07;;;3.63;;
19782;SDS011;10051;40.294;-3.754;2023-02-28T15:20:21;5.93;;;3.30;;
19782;SDS011;10051;40.294;-3.754;2023-02-28T15:22:49;7.93;;;3.58;;
19782;SDS011;10051;40.294;-3.754;2023-02-28T15:25:18;7.70;;;4.20;;
19782;SDS011;10051;40.294;-3.754;2023-02-28T15:27:47;10.10;;;4.22;;
19782;SDS011;10051;40.294;-3.754;2023-02-28T15:30:19;9.95;;;5.78;;
19782;SDS011;10051;40.294;-3.754;2023-02-28T15:33:02;7.60;;;3.97;;
19782;SDS011;10051;40.294;-3.754;2023-02-28T15:35:48;9.77;;;3.65;;
19782;SDS011;10051;40.294;-3.754;2023-02-28T15:38:21;10.18;;;3.90;;
19782;SDS011;10051;40.294;-3.754;2023-02-28T15:40:50;7.20;;;3.83;;
19782;SDS011;10051;40.294;-3.754;2023-02-28T15:43:30;3.47;;;2.30;;
19782;SDS011;10051;40.294;-3.754;2023-02-28T15:46:09;2.90;;;1.80;;
19782;SDS011;10051;40.294;-3.754;2023-02-28T15:48:45;4.60;;;2.30;;
19782;SDS011;10051;40.294;-3.754;2023-02-28T15:51:17;4.13;;;1.92;;
19782;SDS011;10051;40.294;-3.754;2023-02-28T15:53:47;5.25;;;2.13;;
19782;SDS011;10051;40.294;-3.754;2023-02-28T15:56:28;3.85;;;1.98;;
19782;SDS011;10051;40.294;-3.754;2023-02-28T15:59:02;2.40;;;1.88;;
19782;SDS011;10051;40.294;-3.754;2023-02-28T16:01:32;3.58;;;1.90;;
19782;SDS011;10051;40.294;-3.754;2023-02-28T16:04:00;4.18;;;2.45;;
19782;SDS011;10051;40.294;-3.754;2023-02-28T16:06:38;8.55;;;2.10;;
19782;SDS011;10051;40.294;-3.754;2023-02-28T16:09:05;3.15;;;2.10;;
19782;SDS011;10051;40.294;-3.754;2023-02-28T16:11:34;4.72;;;2.30;;
19782;SDS011;10051;40.294;-3.754;2023-02-28T16:14:03;3.30;;;2.03;;
19782;SDS011;10051;40.294;-3.754;2023-02-28T16:16:29;5.70;;;2.30;;
19782;SDS011;10051;40.294;-3.754;2023-02-28T16:18:57;4.28;;;2.10;;
19782;SDS011;10051;40.294;-3.754;2023-02-28T16:21:23;4.45;;;1.80;;
19782;SDS011;10051;40.294;-3.754;2023-02-28T16:23:53;4.20;;;1.80;;
19782;SDS011;10051;40.294;-3.754;2023-02-28T16:26:19;5.30;;;2.55;;
19782;SDS011;10051;40.294;-3.754;2023-02-28T16:28:48;6.68;;;2.10;;
19782;SDS011;10051;40.294;-3.754;2023-02-28T16:31:14;5.75;;;2.20;;
19782;SDS011;10051;40.294;-3.754;2023-02-28T16:33:42;3.03;;;1.98;;
19782;SDS011;10051;40.294;-3.754;2023-02-28T16:36:13;6.07;;;2.72;;
19782;SDS011;10051;40.294;-3.754;2023-02-28T16:38:43;8.45;;;2.80;;
19782;SDS011;10051;40.294;-3.754;2023-02-28T16:41:11;5.18;;;2.58;;
19782;SDS011;10051;40.294;-3.754;2023-02-28T16:43:43;4.82;;;2.47;;
19782;SDS011;10051;40.294;-3.754;2023-02-28T16:46:13;4.03;;;2.37;;
19782;SDS011;10051;40.294;-3.754;2023-02-28T16:48:39;4.23;;;2.40;;
19782;SDS011;10051;40.294;-3.754;2023-02-28T16:51:07;3.63;;;2.20;;
19782;SDS011;10051;40.294;-3.754;2023-02-28T16:53:37;9.87;;;2.73;;
19782;SDS011;10051;40.294;-3.754;2023-02-28T16:56:03;4.82;;;2.33;;
19782;SDS011;10051;40.294;-3.754;2023-02-28T16:58:29;4.43;;;2.15;;
19782;SDS011;10051;40.294;-3.754;2023-02-28T17:00:55;4.40;;;2.10;;
19782;SDS011;10051;40.294;-3.754;2023-02-28T17:03:22;3.20;;;2.17;;
19782;SDS011;10051;40.294;-3.754;2023-02-28T17:05:49;4.63;;;2.40;;
19782;SDS011;10051;40.294;-3.754;2023-02-28T17:08:17;4.50;;;2.20;;
19782;SDS011;10051;40.294;-3.754;2023-02-28T17:10:43;4.30;;;2.10;;
19782;SDS011;10051;40.294;-3.754;2023-02-28T17:13:09;4.23;;;2.10;;
19782;SDS011;10051;40.294;-3.754;2023-02-28T17:15:35;3.97;;;2.20;;
19782;SDS011;10051;40.294;-3.754;2023-02-28T17:18:01;3.77;;;2.10;;
19782;SDS011;10051;40.294;-3.754;2023-02-28T17:20:28;6.63;;;2.03;;